sensor_id;sensor_type;location;lat;lon;timestamp;P1;durP1;ratioP1;P2;durP2;ratioP2
27740;SDS011;15134;48.768;9.184;2024-03-08T00:00:19;806.20;;;636.45;;
27740;SDS011;15134;48.768;9.184;2024-03-08T00:02:45;806.70;;;643.73;;
27740;SDS011;15134;48.768;9.184;2024-03-08T00:05:11;804.72;;;635.83;;
27740;SDS011;15134;48.768;9.184;2024-03-08T00:07:38;804.10;;;635.13;;
27740;SDS011;15134;48.768;9.184;2024-03-08T00:10:06;803.90;;;633.60;;
27740;SDS011;15134;48.768;9.184;2024-03-08T00:12:45;805.00;;;634.08;;
27740;SDS011;15134;48.768;9.184;2024-03-08T00:15:15;803.83;;;632.42;;
27740;SDS011;15134;48.768;9.184;2024-03-08T00:17:42;803.88;;;635.25;;
27740;SDS011;15134;48.768;9.184;2024-03-08T00:20:09;802.92;;;631.70;;
27740;SDS011;15134;48.768;9.184;2024-03-08T00:22:37;805.10;;;632.10;;
27740;SDS011;15134;48.768;9.184;2024-03-08T00:25:03;804.77;;;633.13;;
27740;SDS011;15134;48.768;9.184;2024-03-08T00:27:30;800.35;;;629.10;;
27740;SDS011;15134;48.768;9.184;2024-03-08T00:29:57;802.20;;;634.40;;
27740;SDS011;15134;48.768;9.184;2024-03-08T00:32:23;802.63;;;632.65;;
27740;SDS011;15134;48.768;9.184;2024-03-08T00:34:50;803.17;;;631.47;;
27740;SDS011;15134;48.768;9.184;2024-03-08T00:37:22;801.28;;;631.35;;
27740;SDS011;15134;48.768;9.184;2024-03-08T00:39:51;804.53;;;638.00;;
27740;SDS011;15134;48.768;9.184;2024-03-08T00:42:17;803.75;;;635.00;;
27740;SDS011;15134;48.768;9.184;2024-03-08T00:44:44;799.47;;;634.23;;
27740;SDS011;15134;48.768;9.184;2024-03-08T00:47:10;801.63;;;632.00;;
27740;SDS011;15134;48.768;9.184;2024-03-08T00:49:36;803.17;;;635.97;;
27740;SDS011;15134;48.768;9.184;2024-03-08T00:52:03;803.72;;;637.63;;
27740;SDS011;15134;48.768;9.184;2024-03-08T00:54:32;801.90;;;631.40;;
27740;SDS011;15134;48.768;9.184;2024-03-08T00:56:58;802.47;;;636.35;;
27740;SDS011;15134;48.768;9.184;2024-03-08T00:59:24;801.92;;;635.28;;
27740;SDS011;15134;48.768;9.184;2024-03-08T01:01:50;798.73;;;631.90;;
27740;SDS011;15134;48.768;9.184;2024-03-08T01:04:16;800.38;;;637.65;;
27740;SDS011;15134;48.768;9.184;2024-03-08T01:06:42;801.47;;;635.58;;
27740;SDS011;15134;48.768;9.184;2024-03-08T01:09:10;801.67;;;635.05;;
27740;SDS011;15134;48.768;9.184;2024-03-08T01:11:36;801.20;;;632.07;;
27740;SDS011;15134;48.768;9.184;2024-03-08T01:14:03;800.58;;;629.05;;
27740;SDS011;15134;48.768;9.184;2024-03-08T01:16:29;800.97;;;629.50;;
27740;SDS011;15134;48.768;9.184;2024-03-08T01:18:54;800.17;;;628.93;;
27740;SDS011;15134;48.768;9.184;2024-03-08T01:21:20;799.13;;;629.58;;
27740;SDS011;15134;48.768;9.184;2024-03-08T01:23:47;797.67;;;627.25;;
27740;SDS011;15134;48.768;9.184;2024-03-08T01:26:13;802.55;;;634.33;;
27740;SDS011;15134;48.768;9.184;2024-03-08T01:28:40;800.35;;;629.08;;
27740;SDS011;15134;48.768;9.184;2024-03-08T01:31:05;802.17;;;639.45;;
27740;SDS011;15134;48.768;9.184;2024-03-08T01:33:31;799.73;;;633.50;;
27740;SDS011;15134;48.768;9.184;2024-03-08T01:35:57;798.70;;;628.95;;
27740;SDS011;15134;48.768;9.184;2024-03-08T01:38:23;799.60;;;629.83;;
27740;SDS011;15134;48.768;9.184;2024-03-08T01:40:50;803.30;;;636.13;;
27740;SDS011;15134;48.768;9.184;2024-03-08T01:43:26;799.55;;;627.92;;
27740;SDS011;15134;48.768;9.184;2024-03-08T01:45:57;797.50;;;626.27;;
27740;SDS011;15134;48.768;9.184;2024-03-08T01:48:29;800.80;;;633.13;;
27740;SDS011;15134;48.768;9.184;2024-03-08T01:50:58;799.72;;;628.97;;
27740;SDS011;15134;48.768;9.184;2024-03-08T01:53:26;800.00;;;630.55;;
27740;SDS011;15134;48.768;9.184;2024-03-08T01:55:53;797.30;;;627.90;;
27740;SDS011;15134;48.768;9.184;2024-03-08T01:58:22;797.85;;;628.33;;
27740;SDS011;15134;48.768;9.184;2024-03-08T02:00:48;798.40;;;628.20;;
27740;SDS011;15134;48.768;9.184;2024-03-08T02:03:17;800.47;;;628.27;;
27740;SDS011;15134;48.768;9.184;2024-03-08T02:05:43;799.03;;;628.83;;
27740;SDS011;15134;48.768;9.184;2024-03-08T02:08:09;800.60;;;631.03;;
27740;SDS011;15134;48.768;9.184;2024-03-08T02:10:39;799.78;;;627.00;;
27740;SDS011;15134;48.768;9.184;2024-03-08T02:13:11;794.88;;;622.17;;
27740;SDS011;15134;48.768;9.184;2024-03-08T02:16:10;801.37;;;630.87;;
27740;SDS011;15134;48.768;9.184;2024-03-08T02:18:30;799.67;;;626.95;;
27740;SDS011;15134;48.768;9.184;2024-03-08T02:21:00;797.50;;;626.60;;
27740;SDS011;15134;48.768;9.184;2024-03-08T02:23:30;796.95;;;624.20;;
27740;SDS011;15134;48.768;9.184;2024-03-08T02:25:56;798.58;;;626.05;;
27740;SDS011;15134;48.768;9.184;2024-03-08T02:28:23;797.40;;;627.80;;
27740;SDS011;15134;48.768;9.184;2024-03-08T02:30:50;798.20;;;628.90;;
27740;SDS011;15134;48.768;9.184;2024-03-08T02:33:17;797.97;;;628.00;;
27740;SDS011;15134;48.768;9.184;2024-03-08T02:35:46;798.78;;;628.67;;
27740;SDS011;15134;48.768;9.184;2024-03-08T02:38:13;798.07;;;629.20;;
27740;SDS011;15134;48.768;9.184;2024-03-08T02:40:47;795.70;;;627.60;;
27740;SDS011;15134;48.768;9.184;2024-03-08T02:43:14;796.78;;;626.95;;
27740;SDS011;15134;48.768;9.184;2024-03-08T02:45:41;800.00;;;630.55;;
27740;SDS011;15134;48.768;9.184;2024-03-08T02:48:07;798.45;;;632.08;;
27740;SDS011;15134;48.768;9.184;2024-03-08T02:50:34;795.65;;;624.92;;
27740;SDS011;15134;48.768;9.184;2024-03-08T02:53:00;799.22;;;630.25;;
27740;SDS011;15134;48.768;9.184;2024-03-08T02:55:26;796.67;;;628.35;;
27740;SDS011;15134;48.768;9.184;2024-03-08T02:57:52;792.47;;;622.40;;
27740;SDS011;15134;48.768;9.184;2024-03-08T03:00:20;795.37;;;622.90;;
27740;SDS011;15134;48.768;9.184;2024-03-08T03:02:46;791.00;;;613.78;;
27740;SDS011;15134;48.768;9.184;2024-03-08T03:05:12;792.20;;;623.25;;
27740;SDS011;15134;48.768;9.184;2024-03-08T03:07:38;791.55;;;620.55;;
27740;SDS011;15134;48.768;9.184;2024-03-08T03:10:04;794.40;;;624.75;;
27740;SDS011;15134;48.768;9.184;2024-03-08T03:12:32;797.10;;;626.20;;
27740;SDS011;15134;48.768;9.184;2024-03-08T03:14:58;794.28;;;623.88;;
27740;SDS011;15134;48.768;9.184;2024-03-08T03:17:25;793.25;;;620.15;;
27740;SDS011;15134;48.768;9.184;2024-03-08T03:19:54;794.22;;;624.67;;
27740;SDS011;15134;48.768;9.184;2024-03-08T03:22:20;792.92;;;625.97;;
27740;SDS011;15134;48.768;9.184;2024-03-08T03:24:46;795.10;;;629.63;;
27740;SDS011;15134;48.768;9.184;2024-03-08T03:27:12;795.90;;;623.65;;
27740;SDS011;15134;48.768;9.184;2024-03-08T03:29:40;792.60;;;626.57;;
27740;SDS011;15134;48.768;9.184;2024-03-08T03:32:14;794.35;;;624.08;;
27740;SDS011;15134;48.768;9.184;2024-03-08T03:34:41;791.33;;;620.25;;
27740;SDS011;15134;48.768;9.184;2024-03-08T03:37:09;796.05;;;627.38;;
27740;SDS011;15134;48.768;9.184;2024-03-08T03:39:38;789.10;;;617.70;;
27740;SDS011;15134;48.768;9.184;2024-03-08T03:42:17;791.20;;;618.42;;
27740;SDS011;15134;48.768;9.184;2024-03-08T03:44:47;793.53;;;625.27;;
27740;SDS011;15134;48.768;9.184;2024-03-08T03:47:14;789.90;;;614.10;;
27740;SDS011;15134;48.768;9.184;2024-03-08T03:49:41;794.42;;;622.15;;
27740;SDS011;15134;48.768;9.184;2024-03-08T03:52:07;794.15;;;622.42;;
27740;SDS011;15134;48.768;9.184;2024-03-08T03:54:34;797.67;;;631.38;;
27740;SDS011;15134;48.768;9.184;2024-03-08T03:57:00;791.50;;;619.22;;
27740;SDS011;15134;48.768;9.184;2024-03-08T03:59:29;791.83;;;619.88;;
27740;SDS011;15134;48.768;9.184;2024-03-08T04:01:54;791.42;;;623.17;;
27740;SDS011;15134;48.768;9.184;2024-03-08T04:04:20;790.85;;;616.25;;
27740;SDS011;15134;48.768;9.184;2024-03-08T04:06:46;794.45;;;624.47;;
27740;SDS011;15134;48.768;9.184;2024-03-08T04:09:12;792.57;;;623.60;;
27740;SDS011;15134;48.768;9.184;2024-03-08T04:11:39;794.83;;;628.08;;
27740;SDS011;15134;48.768;9.184;2024-03-08T04:14:05;794.58;;;625.25;;
27740;SDS011;15134;48.768;9.184;2024-03-08T04:16:31;793.65;;;622.70;;
27740;SDS011;15134;48.768;9.184;2024-03-08T04:18:57;796.13;;;626.88;;
27740;SDS011;15134;48.768;9.184;2024-03-08T04:21:23;792.83;;;619.70;;
27740;SDS011;15134;48.768;9.184;2024-03-08T04:23:49;793.50;;;623.87;;
27740;SDS011;15134;48.768;9.184;2024-03-08T04:26:15;793.90;;;624.75;;
27740;SDS011;15134;48.768;9.184;2024-03-08T04:28:41;793.30;;;620.40;;
27740;SDS011;15134;48.768;9.184;2024-03-08T04:31:06;791.60;;;620.30;;
27740;SDS011;15134;48.768;9.184;2024-03-08T04:33:32;792.20;;;622.47;;
27740;SDS011;15134;48.768;9.184;2024-03-08T04:36:01;791.47;;;621.83;;
27740;SDS011;15134;48.768;9.184;2024-03-08T04:38:29;792.50;;;621.37;;
27740;SDS011;15134;48.768;9.184;2024-03-08T04:40:56;789.40;;;615.38;;
27740;SDS011;15134;48.768;9.184;2024-03-08T04:43:23;791.90;;;624.22;;
27740;SDS011;15134;48.768;9.184;2024-03-08T04:45:52;785.88;;;610.67;;
27740;SDS011;15134;48.768;9.184;2024-03-08T04:48:18;792.55;;;619.88;;
27740;SDS011;15134;48.768;9.184;2024-03-08T04:50:46;792.97;;;619.50;;
27740;SDS011;15134;48.768;9.184;2024-03-08T04:53:12;791.35;;;619.55;;
27740;SDS011;15134;48.768;9.184;2024-03-08T04:55:38;788.75;;;614.60;;
27740;SDS011;15134;48.768;9.184;2024-03-08T04:58:04;790.28;;;616.00;;
27740;SDS011;15134;48.768;9.184;2024-03-08T05:00:33;789.55;;;613.10;;
27740;SDS011;15134;48.768;9.184;2024-03-08T05:02:59;794.77;;;625.87;;
27740;SDS011;15134;48.768;9.184;2024-03-08T05:05:25;794.42;;;622.35;;
27740;SDS011;15134;48.768;9.184;2024-03-08T05:07:53;795.38;;;624.22;;
27740;SDS011;15134;48.768;9.184;2024-03-08T05:10:19;791.10;;;618.08;;
27740;SDS011;15134;48.768;9.184;2024-03-08T05:12:46;791.45;;;616.45;;
27740;SDS011;15134;48.768;9.184;2024-03-08T05:15:12;795.22;;;623.60;;
27740;SDS011;15134;48.768;9.184;2024-03-08T05:17:38;795.47;;;623.05;;
27740;SDS011;15134;48.768;9.184;2024-03-08T05:20:05;796.63;;;625.15;;
27740;SDS011;15134;48.768;9.184;2024-03-08T05:22:33;793.87;;;621.93;;
27740;SDS011;15134;48.768;9.184;2024-03-08T05:24:59;796.03;;;624.97;;
27740;SDS011;15134;48.768;9.184;2024-03-08T05:27:25;795.67;;;621.42;;
27740;SDS011;15134;48.768;9.184;2024-03-08T05:29:51;796.40;;;626.80;;
27740;SDS011;15134;48.768;9.184;2024-03-08T05:32:17;793.65;;;620.15;;
27740;SDS011;15134;48.768;9.184;2024-03-08T05:34:43;793.97;;;617.65;;
27740;SDS011;15134;48.768;9.184;2024-03-08T05:37:09;796.00;;;621.88;;
27740;SDS011;15134;48.768;9.184;2024-03-08T05:39:36;793.42;;;618.28;;
27740;SDS011;15134;48.768;9.184;2024-03-08T05:42:02;790.70;;;611.58;;
27740;SDS011;15134;48.768;9.184;2024-03-08T05:44:27;795.33;;;620.87;;
27740;SDS011;15134;48.768;9.184;2024-03-08T05:46:56;789.97;;;613.10;;
27740;SDS011;15134;48.768;9.184;2024-03-08T05:49:22;794.33;;;621.85;;
27740;SDS011;15134;48.768;9.184;2024-03-08T05:51:50;794.95;;;621.50;;
27740;SDS011;15134;48.768;9.184;2024-03-08T05:54:16;793.13;;;622.47;;
27740;SDS011;15134;48.768;9.184;2024-03-08T05:56:42;791.07;;;615.80;;
27740;SDS011;15134;48.768;9.184;2024-03-08T05:59:09;796.38;;;619.63;;
27740;SDS011;15134;48.768;9.184;2024-03-08T06:01:36;801.72;;;629.10;;
27740;SDS011;15134;48.768;9.184;2024-03-08T06:04:03;792.83;;;621.22;;
27740;SDS011;15134;48.768;9.184;2024-03-08T06:06:29;795.75;;;620.55;;
27740;SDS011;15134;48.768;9.184;2024-03-08T06:08:55;793.22;;;620.15;;
27740;SDS011;15134;48.768;9.184;2024-03-08T06:11:34;794.80;;;621.30;;
27740;SDS011;15134;48.768;9.184;2024-03-08T06:13:59;793.28;;;621.75;;
27740;SDS011;15134;48.768;9.184;2024-03-08T06:16:26;791.50;;;616.90;;
27740;SDS011;15134;48.768;9.184;2024-03-08T06:18:56;793.07;;;618.00;;
27740;SDS011;15134;48.768;9.184;2024-03-08T06:21:22;792.33;;;614.57;;
27740;SDS011;15134;48.768;9.184;2024-03-08T06:23:51;796.30;;;625.20;;
27740;SDS011;15134;48.768;9.184;2024-03-08T06:26:20;793.72;;;615.92;;
27740;SDS011;15134;48.768;9.184;2024-03-08T06:28:47;798.58;;;627.05;;
27740;SDS011;15134;48.768;9.184;2024-03-08T06:31:13;795.70;;;623.20;;
27740;SDS011;15134;48.768;9.184;2024-03-08T06:33:40;793.58;;;618.65;;
27740;SDS011;15134;48.768;9.184;2024-03-08T06:36:05;798.15;;;628.05;;
27740;SDS011;15134;48.768;9.184;2024-03-08T06:38:32;799.42;;;629.72;;
27740;SDS011;15134;48.768;9.184;2024-03-08T06:40:58;797.00;;;625.72;;
27740;SDS011;15134;48.768;9.184;2024-03-08T06:43:23;798.97;;;625.40;;
27740;SDS011;15134;48.768;9.184;2024-03-08T06:45:57;799.78;;;625.70;;
27740;SDS011;15134;48.768;9.184;2024-03-08T06:48:23;801.03;;;635.03;;
27740;SDS011;15134;48.768;9.184;2024-03-08T06:50:49;796.42;;;626.20;;
27740;SDS011;15134;48.768;9.184;2024-03-08T06:53:14;798.55;;;628.60;;
27740;SDS011;15134;48.768;9.184;2024-03-08T06:55:44;799.53;;;628.72;;
27740;SDS011;15134;48.768;9.184;2024-03-08T06:58:10;800.55;;;628.33;;
27740;SDS011;15134;48.768;9.184;2024-03-08T07:00:36;808.95;;;637.03;;
27740;SDS011;15134;48.768;9.184;2024-03-08T07:03:02;810.30;;;640.05;;
27740;SDS011;15134;48.768;9.184;2024-03-08T07:05:29;804.90;;;640.03;;
27740;SDS011;15134;48.768;9.184;2024-03-08T07:07:55;801.53;;;627.03;;
27740;SDS011;15134;48.768;9.184;2024-03-08T07:10:21;802.03;;;628.07;;
27740;SDS011;15134;48.768;9.184;2024-03-08T07:12:50;806.30;;;632.67;;
27740;SDS011;15134;48.768;9.184;2024-03-08T07:15:18;804.58;;;638.45;;
27740;SDS011;15134;48.768;9.184;2024-03-08T07:17:48;803.70;;;634.65;;
27740;SDS011;15134;48.768;9.184;2024-03-08T07:20:14;804.33;;;637.60;;
27740;SDS011;15134;48.768;9.184;2024-03-08T07:22:44;805.15;;;635.17;;
27740;SDS011;15134;48.768;9.184;2024-03-08T07:25:13;802.90;;;634.57;;
27740;SDS011;15134;48.768;9.184;2024-03-08T07:27:54;806.50;;;638.95;;
27740;SDS011;15134;48.768;9.184;2024-03-08T07:30:24;802.08;;;632.25;;
27740;SDS011;15134;48.768;9.184;2024-03-08T07:33:20;801.60;;;630.17;;
27740;SDS011;15134;48.768;9.184;2024-03-08T07:35:47;802.73;;;633.47;;
27740;SDS011;15134;48.768;9.184;2024-03-08T07:38:15;801.40;;;632.92;;
27740;SDS011;15134;48.768;9.184;2024-03-08T07:40:41;803.17;;;633.33;;
27740;SDS011;15134;48.768;9.184;2024-03-08T07:43:10;802.42;;;635.58;;
27740;SDS011;15134;48.768;9.184;2024-03-08T07:45:37;801.17;;;630.70;;
27740;SDS011;15134;48.768;9.184;2024-03-08T07:48:04;801.17;;;636.53;;
27740;SDS011;15134;48.768;9.184;2024-03-08T07:50:36;799.92;;;629.13;;
27740;SDS011;15134;48.768;9.184;2024-03-08T07:53:06;801.38;;;626.83;;
27740;SDS011;15134;48.768;9.184;2024-03-08T07:55:33;800.85;;;632.08;;
27740;SDS011;15134;48.768;9.184;2024-03-08T07:58:00;799.60;;;631.83;;
27740;SDS011;15134;48.768;9.184;2024-03-08T08:00:26;802.30;;;632.63;;
27740;SDS011;15134;48.768;9.184;2024-03-08T08:02:55;798.20;;;627.97;;
27740;SDS011;15134;48.768;9.184;2024-03-08T08:05:21;799.60;;;631.88;;
27740;SDS011;15134;48.768;9.184;2024-03-08T08:07:47;800.65;;;630.35;;
27740;SDS011;15134;48.768;9.184;2024-03-08T08:10:13;801.67;;;630.53;;
27740;SDS011;15134;48.768;9.184;2024-03-08T08:12:43;796.22;;;620.85;;
27740;SDS011;15134;48.768;9.184;2024-03-08T08:15:11;803.67;;;635.80;;
27740;SDS011;15134;48.768;9.184;2024-03-08T08:17:37;802.67;;;637.15;;
27740;SDS011;15134;48.768;9.184;2024-03-08T08:20:04;803.28;;;634.40;;
27740;SDS011;15134;48.768;9.184;2024-03-08T08:22:30;802.95;;;636.90;;
27740;SDS011;15134;48.768;9.184;2024-03-08T08:24:57;802.88;;;637.78;;
27740;SDS011;15134;48.768;9.184;2024-03-08T08:27:23;804.60;;;639.22;;
27740;SDS011;15134;48.768;9.184;2024-03-08T08:29:51;810.80;;;646.83;;
27740;SDS011;15134;48.768;9.184;2024-03-08T08:32:16;797.90;;;631.15;;
27740;SDS011;15134;48.768;9.184;2024-03-08T08:34:43;801.75;;;633.83;;
27740;SDS011;15134;48.768;9.184;2024-03-08T08:37:09;805.45;;;634.38;;
27740;SDS011;15134;48.768;9.184;2024-03-08T08:39:35;801.77;;;630.13;;
27740;SDS011;15134;48.768;9.184;2024-03-08T08:42:03;797.15;;;628.13;;
27740;SDS011;15134;48.768;9.184;2024-03-08T08:44:29;796.90;;;628.03;;
27740;SDS011;15134;48.768;9.184;2024-03-08T08:46:56;799.30;;;629.42;;
27740;SDS011;15134;48.768;9.184;2024-03-08T08:49:22;798.60;;;630.03;;
27740;SDS011;15134;48.768;9.184;2024-03-08T08:51:49;796.33;;;628.00;;
27740;SDS011;15134;48.768;9.184;2024-03-08T08:54:15;799.38;;;630.85;;
27740;SDS011;15134;48.768;9.184;2024-03-08T08:56:42;794.93;;;623.00;;
27740;SDS011;15134;48.768;9.184;2024-03-08T08:59:12;794.40;;;623.80;;
27740;SDS011;15134;48.768;9.184;2024-03-08T09:01:44;797.35;;;626.25;;
27740;SDS011;15134;48.768;9.184;2024-03-08T09:04:13;797.92;;;630.45;;
27740;SDS011;15134;48.768;9.184;2024-03-08T09:06:39;796.03;;;623.90;;
27740;SDS011;15134;48.768;9.184;2024-03-08T09:09:07;797.53;;;628.58;;
27740;SDS011;15134;48.768;9.184;2024-03-08T09:11:34;798.28;;;622.72;;
27740;SDS011;15134;48.768;9.184;2024-03-08T09:14:00;794.42;;;624.42;;
27740;SDS011;15134;48.768;9.184;2024-03-08T09:16:27;793.53;;;621.72;;
27740;SDS011;15134;48.768;9.184;2024-03-08T09:18:52;797.90;;;626.83;;
27740;SDS011;15134;48.768;9.184;2024-03-08T09:21:18;797.87;;;623.50;;
27740;SDS011;15134;48.768;9.184;2024-03-08T09:23:44;795.88;;;620.83;;
27740;SDS011;15134;48.768;9.184;2024-03-08T09:26:10;797.07;;;625.30;;
27740;SDS011;15134;48.768;9.184;2024-03-08T09:28:38;800.15;;;626.97;;
27740;SDS011;15134;48.768;9.184;2024-03-08T09:31:04;794.97;;;621.97;;
27740;SDS011;15134;48.768;9.184;2024-03-08T09:33:30;800.15;;;627.78;;
27740;SDS011;15134;48.768;9.184;2024-03-08T09:35:56;799.38;;;629.05;;
27740;SDS011;15134;48.768;9.184;2024-03-08T09:38:25;799.72;;;627.72;;
27740;SDS011;15134;48.768;9.184;2024-03-08T09:40:51;794.85;;;619.13;;
27740;SDS011;15134;48.768;9.184;2024-03-08T09:43:18;798.75;;;627.22;;
27740;SDS011;15134;48.768;9.184;2024-03-08T09:45:45;797.92;;;628.50;;
27740;SDS011;15134;48.768;9.184;2024-03-08T09:48:14;799.45;;;631.53;;
27740;SDS011;15134;48.768;9.184;2024-03-08T09:50:44;803.33;;;636.78;;
27740;SDS011;15134;48.768;9.184;2024-03-08T09:53:11;800.15;;;629.13;;
27740;SDS011;15134;48.768;9.184;2024-03-08T09:55:39;802.25;;;634.22;;
27740;SDS011;15134;48.768;9.184;2024-03-08T09:58:09;803.08;;;636.17;;
27740;SDS011;15134;48.768;9.184;2024-03-08T10:00:45;803.00;;;630.33;;
27740;SDS011;15134;48.768;9.184;2024-03-08T10:03:11;807.10;;;632.65;;
27740;SDS011;15134;48.768;9.184;2024-03-08T10:05:40;799.53;;;634.28;;
27740;SDS011;15134;48.768;9.184;2024-03-08T10:08:06;805.67;;;642.90;;
27740;SDS011;15134;48.768;9.184;2024-03-08T10:10:42;802.40;;;631.92;;
27740;SDS011;15134;48.768;9.184;2024-03-08T10:13:08;803.45;;;642.45;;
27740;SDS011;15134;48.768;9.184;2024-03-08T10:15:36;806.42;;;647.38;;
27740;SDS011;15134;48.768;9.184;2024-03-08T10:18:03;805.10;;;639.90;;
27740;SDS011;15134;48.768;9.184;2024-03-08T10:20:32;807.88;;;649.45;;
27740;SDS011;15134;48.768;9.184;2024-03-08T10:22:59;798.25;;;632.05;;
27740;SDS011;15134;48.768;9.184;2024-03-08T10:25:26;801.25;;;638.25;;
27740;SDS011;15134;48.768;9.184;2024-03-08T10:27:51;796.70;;;626.35;;
27740;SDS011;15134;48.768;9.184;2024-03-08T10:30:17;797.80;;;630.07;;
27740;SDS011;15134;48.768;9.184;2024-03-08T10:32:45;803.20;;;637.17;;
27740;SDS011;15134;48.768;9.184;2024-03-08T10:35:11;802.97;;;637.93;;
27740;SDS011;15134;48.768;9.184;2024-03-08T10:40:24;805.22;;;646.20;;
27740;SDS011;15134;48.768;9.184;2024-03-08T10:42:54;807.15;;;644.60;;
27740;SDS011;15134;48.768;9.184;2024-03-08T10:45:39;807.50;;;649.00;;
27740;SDS011;15134;48.768;9.184;2024-03-08T10:50:57;801.10;;;637.73;;
27740;SDS011;15134;48.768;9.184;2024-03-08T10:53:26;809.63;;;652.17;;
27740;SDS011;15134;48.768;9.184;2024-03-08T10:55:53;805.58;;;646.33;;
27740;SDS011;15134;48.768;9.184;2024-03-08T10:58:23;809.20;;;655.08;;
27740;SDS011;15134;48.768;9.184;2024-03-08T11:00:54;807.53;;;647.03;;
27740;SDS011;15134;48.768;9.184;2024-03-08T11:06:09;800.75;;;636.97;;
27740;SDS011;15134;48.768;9.184;2024-03-08T11:08:43;803.95;;;639.30;;
27740;SDS011;15134;48.768;9.184;2024-03-08T11:11:30;809.80;;;653.47;;
27740;SDS011;15134;48.768;9.184;2024-03-08T11:13:57;803.05;;;635.15;;
27740;SDS011;15134;48.768;9.184;2024-03-08T11:21:36;809.58;;;651.50;;
27740;SDS011;15134;48.768;9.184;2024-03-08T11:26:37;809.55;;;649.38;;
27740;SDS011;15134;48.768;9.184;2024-03-08T11:32:15;810.85;;;653.53;;
27740;SDS011;15134;48.768;9.184;2024-03-08T11:34:45;810.65;;;655.95;;
27740;SDS011;15134;48.768;9.184;2024-03-08T11:37:14;809.40;;;650.63;;
27740;SDS011;15134;48.768;9.184;2024-03-08T11:39:46;803.05;;;638.42;;
27740;SDS011;15134;48.768;9.184;2024-03-08T11:42:24;807.45;;;647.90;;
27740;SDS011;15134;48.768;9.184;2024-03-08T11:44:51;811.65;;;653.13;;
27740;SDS011;15134;48.768;9.184;2024-03-08T11:47:18;817.65;;;665.45;;
27740;SDS011;15134;48.768;9.184;2024-03-08T11:49:44;816.22;;;665.13;;
27740;SDS011;15134;48.768;9.184;2024-03-08T11:52:15;812.90;;;656.33;;
27740;SDS011;15134;48.768;9.184;2024-03-08T11:54:43;811.92;;;655.45;;
27740;SDS011;15134;48.768;9.184;2024-03-08T11:57:20;808.72;;;648.30;;
27740;SDS011;15134;48.768;9.184;2024-03-08T11:59:56;808.15;;;652.58;;
27740;SDS011;15134;48.768;9.184;2024-03-08T12:02:23;807.97;;;647.37;;
27740;SDS011;15134;48.768;9.184;2024-03-08T12:04:56;805.72;;;643.13;;
27740;SDS011;15134;48.768;9.184;2024-03-08T12:07:22;804.35;;;642.85;;
27740;SDS011;15134;48.768;9.184;2024-03-08T12:12:51;804.58;;;640.28;;
27740;SDS011;15134;48.768;9.184;2024-03-08T12:15:19;814.42;;;656.45;;
27740;SDS011;15134;48.768;9.184;2024-03-08T12:17:47;809.92;;;650.83;;
27740;SDS011;15134;48.768;9.184;2024-03-08T12:20:18;811.70;;;657.63;;
27740;SDS011;15134;48.768;9.184;2024-03-08T12:22:48;820.83;;;670.22;;
27740;SDS011;15134;48.768;9.184;2024-03-08T12:25:15;810.95;;;653.47;;
27740;SDS011;15134;48.768;9.184;2024-03-08T12:27:41;812.65;;;656.92;;
27740;SDS011;15134;48.768;9.184;2024-03-08T12:30:21;817.17;;;662.90;;
27740;SDS011;15134;48.768;9.184;2024-03-08T12:32:55;816.17;;;666.08;;
27740;SDS011;15134;48.768;9.184;2024-03-08T12:35:26;824.47;;;682.50;;
27740;SDS011;15134;48.768;9.184;2024-03-08T12:37:57;826.55;;;687.15;;
27740;SDS011;15134;48.768;9.184;2024-03-08T12:40:31;818.35;;;668.95;;
27740;SDS011;15134;48.768;9.184;2024-03-08T12:42:57;820.22;;;672.40;;
27740;SDS011;15134;48.768;9.184;2024-03-08T12:45:24;822.40;;;673.60;;
27740;SDS011;15134;48.768;9.184;2024-03-08T12:47:54;814.53;;;659.33;;
27740;SDS011;15134;48.768;9.184;2024-03-08T12:50:20;814.95;;;659.28;;
27740;SDS011;15134;48.768;9.184;2024-03-08T12:52:47;813.67;;;654.97;;
27740;SDS011;15134;48.768;9.184;2024-03-08T12:55:14;811.05;;;657.75;;
27740;SDS011;15134;48.768;9.184;2024-03-08T12:57:41;817.60;;;666.30;;
27740;SDS011;15134;48.768;9.184;2024-03-08T13:00:08;824.53;;;681.20;;
27740;SDS011;15134;48.768;9.184;2024-03-08T13:02:47;824.67;;;685.53;;
27740;SDS011;15134;48.768;9.184;2024-03-08T13:05:14;824.00;;;681.47;;
27740;SDS011;15134;48.768;9.184;2024-03-08T13:07:41;822.83;;;677.30;;
27740;SDS011;15134;48.768;9.184;2024-03-08T13:10:13;827.47;;;689.15;;
27740;SDS011;15134;48.768;9.184;2024-03-08T13:12:41;825.73;;;686.73;;
27740;SDS011;15134;48.768;9.184;2024-03-08T13:15:10;820.85;;;674.28;;
27740;SDS011;15134;48.768;9.184;2024-03-08T13:17:41;822.60;;;678.08;;
27740;SDS011;15134;48.768;9.184;2024-03-08T13:20:08;821.73;;;673.50;;
27740;SDS011;15134;48.768;9.184;2024-03-08T13:22:35;818.22;;;667.67;;
27740;SDS011;15134;48.768;9.184;2024-03-08T13:25:01;818.92;;;668.88;;
27740;SDS011;15134;48.768;9.184;2024-03-08T13:27:27;825.90;;;683.53;;
27740;SDS011;15134;48.768;9.184;2024-03-08T13:29:54;823.22;;;676.47;;
27740;SDS011;15134;48.768;9.184;2024-03-08T13:32:19;821.67;;;674.20;;
27740;SDS011;15134;48.768;9.184;2024-03-08T13:34:49;822.30;;;673.15;;
27740;SDS011;15134;48.768;9.184;2024-03-08T13:37:19;824.65;;;679.15;;
27740;SDS011;15134;48.768;9.184;2024-03-08T13:39:45;820.80;;;673.53;;
27740;SDS011;15134;48.768;9.184;2024-03-08T13:42:11;821.87;;;671.47;;
27740;SDS011;15134;48.768;9.184;2024-03-08T13:44:45;821.00;;;663.17;;
27740;SDS011;15134;48.768;9.184;2024-03-08T13:47:14;820.50;;;670.53;;
27740;SDS011;15134;48.768;9.184;2024-03-08T13:49:44;820.00;;;671.95;;
27740;SDS011;15134;48.768;9.184;2024-03-08T13:52:10;818.13;;;664.85;;
27740;SDS011;15134;48.768;9.184;2024-03-08T13:54:37;818.72;;;664.58;;
27740;SDS011;15134;48.768;9.184;2024-03-08T13:57:03;818.42;;;663.95;;
27740;SDS011;15134;48.768;9.184;2024-03-08T13:59:30;821.20;;;667.70;;
27740;SDS011;15134;48.768;9.184;2024-03-08T14:02:01;827.07;;;681.83;;
27740;SDS011;15134;48.768;9.184;2024-03-08T14:04:27;821.25;;;673.40;;
27740;SDS011;15134;48.768;9.184;2024-03-08T14:06:54;834.47;;;692.45;;
27740;SDS011;15134;48.768;9.184;2024-03-08T14:09:23;826.05;;;680.60;;
27740;SDS011;15134;48.768;9.184;2024-03-08T14:11:50;822.65;;;675.42;;
27740;SDS011;15134;48.768;9.184;2024-03-08T14:14:19;817.45;;;662.45;;
27740;SDS011;15134;48.768;9.184;2024-03-08T14:16:51;821.72;;;675.53;;
27740;SDS011;15134;48.768;9.184;2024-03-08T14:19:19;818.92;;;666.90;;
27740;SDS011;15134;48.768;9.184;2024-03-08T14:21:45;823.28;;;676.08;;